sensor_id;sensor_type;location;lat;lon;timestamp;temperature;humidity
54192;DHT22;40101;53.002;6.488;2023-03-23T00:01:15;11.10;99.90
54192;DHT22;40101;53.002;6.488;2023-03-23T00:03:49;11.10;99.90
54192;DHT22;40101;53.002;6.488;2023-03-23T00:06:19;11.10;99.90
54192;DHT22;40101;53.002;6.488;2023-03-23T00:08:47;11.10;99.90
54192;DHT22;40101;53.002;6.488;2023-03-23T00:11:16;11.10;99.90
54192;DHT22;40101;53.002;6.488;2023-03-23T00:13:44;11.10;99.90
54192;DHT22;40101;53.002;6.488;2023-03-23T00:16:12;11.10;99.90
54192;DHT22;40101;53.002;6.488;2023-03-23T00:18:48;11.10;99.90
54192;DHT22;40101;53.002;6.488;2023-03-23T00:21:27;11.20;99.90
54192;DHT22;40101;53.002;6.488;2023-03-23T00:24:07;11.20;99.90
54192;DHT22;40101;53.002;6.488;2023-03-23T00:26:34;11.10;99.90
54192;DHT22;40101;53.002;6.488;2023-03-23T00:29:02;11.10;99.90
54192;DHT22;40101;53.002;6.488;2023-03-23T00:31:29;11.10;99.90
54192;DHT22;40101;53.002;6.488;2023-03-23T00:33:58;11.10;99.90
54192;DHT22;40101;53.002;6.488;2023-03-23T00:36:24;11.10;99.90
54192;DHT22;40101;53.002;6.488;2023-03-23T00:38:50;11.10;99.90
54192;DHT22;40101;53.002;6.488;2023-03-23T00:41:15;11.10;99.90
54192;DHT22;40101;53.002;6.488;2023-03-23T00:43:41;11.10;99.90
54192;DHT22;40101;53.002;6.488;2023-03-23T00:46:06;11.10;99.90
54192;DHT22;40101;53.002;6.488;2023-03-23T00:48:36;11.10;99.90
54192;DHT22;40101;53.002;6.488;2023-03-23T00:51:06;11.10;99.90
54192;DHT22;40101;53.002;6.488;2023-03-23T00:53:41;11.10;99.90
54192;DHT22;40101;53.002;6.488;2023-03-23T00:56:08;11.10;99.90
54192;DHT22;40101;53.002;6.488;2023-03-23T00:58:34;11.10;99.90
54192;DHT22;40101;53.002;6.488;2023-03-23T01:01:00;11.10;99.90
54192;DHT22;40101;53.002;6.488;2023-03-23T01:03:26;11.10;99.90
54192;DHT22;40101;53.002;6.488;2023-03-23T01:05:53;11.10;99.90
54192;DHT22;40101;53.002;6.488;2023-03-23T01:08:20;11.10;99.90
54192;DHT22;40101;53.002;6.488;2023-03-23T01:10:47;11.10;99.90
54192;DHT22;40101;53.002;6.488;2023-03-23T01:13:14;11.10;99.90
54192;DHT22;40101;53.002;6.488;2023-03-23T01:15:41;11.00;99.90
54192;DHT22;40101;53.002;6.488;2023-03-23T01:18:07;11.10;99.90
54192;DHT22;40101;53.002;6.488;2023-03-23T01:20:35;11.10;99.90
54192;DHT22;40101;53.002;6.488;2023-03-23T01:23:01;11.10;99.90
54192;DHT22;40101;53.002;6.488;2023-03-23T01:25:29;11.10;99.90
54192;DHT22;40101;53.002;6.488;2023-03-23T01:27:55;11.10;99.90
54192;DHT22;40101;53.002;6.488;2023-03-23T01:30:21;11.00;99.90
54192;DHT22;40101;53.002;6.488;2023-03-23T01:32:46;11.10;99.90
54192;DHT22;40101;53.002;6.488;2023-03-23T01:35:13;11.00;99.90
54192;DHT22;40101;53.002;6.488;2023-03-23T01:37:39;11.00;99.90
54192;DHT22;40101;53.002;6.488;2023-03-23T01:40:06;11.00;99.90
54192;DHT22;40101;53.002;6.488;2023-03-23T01:42:35;11.00;99.90
54192;DHT22;40101;53.002;6.488;2023-03-23T01:47:47;11.00;99.90
54192;DHT22;40101;53.002;6.488;2023-03-23T01:50:13;11.00;99.90
54192;DHT22;40101;53.002;6.488;2023-03-23T01:52:40;11.00;99.90
54192;DHT22;40101;53.002;6.488;2023-03-23T01:55:06;11.00;99.90
54192;DHT22;40101;53.002;6.488;2023-03-23T01:57:33;11.00;99.90
54192;DHT22;40101;53.002;6.488;2023-03-23T02:00:03;11.10;99.90
54192;DHT22;40101;53.002;6.488;2023-03-23T02:02:36;11.10;99.90
54192;DHT22;40101;53.002;6.488;2023-03-23T02:05:08;11.10;99.90
54192;DHT22;40101;53.002;6.488;2023-03-23T02:07:36;11.20;99.90
54192;DHT22;40101;53.002;6.488;2023-03-23T02:10:02;11.20;99.90
54192;DHT22;40101;53.002;6.488;2023-03-23T02:12:28;11.20;99.90
54192;DHT22;40101;53.002;6.488;2023-03-23T02:14:53;11.10;99.90
54192;DHT22;40101;53.002;6.488;2023-03-23T02:17:37;11.20;99.90
54192;DHT22;40101;53.002;6.488;2023-03-23T02:20:34;11.20;99.90
54192;DHT22;40101;53.002;6.488;2023-03-23T02:26:23;11.20;99.90
54192;DHT22;40101;53.002;6.488;2023-03-23T02:29:07;11.10;99.90
54192;DHT22;40101;53.002;6.488;2023-03-23T02:37:18;11.10;99.90
54192;DHT22;40101;53.002;6.488;2023-03-23T02:40:17;11.10;99.90
54192;DHT22;40101;53.002;6.488;2023-03-23T02:42:43;11.10;99.90
54192;DHT22;40101;53.002;6.488;2023-03-23T02:45:11;11.10;99.90
54192;DHT22;40101;53.002;6.488;2023-03-23T02:47:39;11.10;99.90
54192;DHT22;40101;53.002;6.488;2023-03-23T02:50:09;11.10;99.90
54192;DHT22;40101;53.002;6.488;2023-03-23T02:52:36;11.10;99.90
54192;DHT22;40101;53.002;6.488;2023-03-23T02:55:04;11.10;99.90
54192;DHT22;40101;53.002;6.488;2023-03-23T02:57:31;11.10;99.90
54192;DHT22;40101;53.002;6.488;2023-03-23T02:59:57;11.10;99.90
54192;DHT22;40101;53.002;6.488;2023-03-23T03:02:26;11.10;99.90
54192;DHT22;40101;53.002;6.488;2023-03-23T03:05:58;11.10;99.90
54192;DHT22;40101;53.002;6.488;2023-03-23T03:08:07;11.20;99.90
54192;DHT22;40101;53.002;6.488;2023-03-23T03:10:44;11.10;99.90
54192;DHT22;40101;53.002;6.488;2023-03-23T03:13:19;11.10;99.90
54192;DHT22;40101;53.002;6.488;2023-03-23T03:18:34;11.20;99.90
54192;DHT22;40101;53.002;6.488;2023-03-23T03:21:08;11.20;99.90
54192;DHT22;40101;53.002;6.488;2023-03-23T03:23:37;11.20;99.90
54192;DHT22;40101;53.002;6.488;2023-03-23T03:26:04;11.20;99.90
54192;DHT22;40101;53.002;6.488;2023-03-23T03:28:32;11.10;99.90
54192;DHT22;40101;53.002;6.488;2023-03-23T03:31:00;11.20;99.90
54192;DHT22;40101;53.002;6.488;2023-03-23T03:33:28;11.20;99.90
54192;DHT22;40101;53.002;6.488;2023-03-23T03:35:58;11.20;99.90
54192;DHT22;40101;53.002;6.488;2023-03-23T03:38:26;11.20;99.90
54192;DHT22;40101;53.002;6.488;2023-03-23T03:40:52;11.10;99.90
54192;DHT22;40101;53.002;6.488;2023-03-23T03:43:18;11.10;99.90
54192;DHT22;40101;53.002;6.488;2023-03-23T03:45:43;11.10;99.90
54192;DHT22;40101;53.002;6.488;2023-03-23T03:48:10;11.00;99.90
54192;DHT22;40101;53.002;6.488;2023-03-23T03:50:36;11.00;99.90
54192;DHT22;40101;53.002;6.488;2023-03-23T03:53:02;11.00;99.90
54192;DHT22;40101;53.002;6.488;2023-03-23T03:55:28;10.90;99.90
54192;DHT22;40101;53.002;6.488;2023-03-23T03:57:55;10.90;99.90
54192;DHT22;40101;53.002;6.488;2023-03-23T04:00:21;10.90;99.90
54192;DHT22;40101;53.002;6.488;2023-03-23T04:02:49;10.90;99.90
54192;DHT22;40101;53.002;6.488;2023-03-23T04:05:20;10.90;99.90
54192;DHT22;40101;53.002;6.488;2023-03-23T04:07:46;10.90;99.90
54192;DHT22;40101;53.002;6.488;2023-03-23T04:10:17;11.00;99.90
54192;DHT22;40101;53.002;6.488;2023-03-23T04:12:45;11.00;99.90
54192;DHT22;40101;53.002;6.488;2023-03-23T04:15:11;11.00;99.90
54192;DHT22;40101;53.002;6.488;2023-03-23T04:17:36;11.10;99.90
54192;DHT22;40101;53.002;6.488;2023-03-23T04:20:03;11.10;99.90
54192;DHT22;40101;53.002;6.488;2023-03-23T04:22:34;11.10;99.90
54192;DHT22;40101;53.002;6.488;2023-03-23T04:25:00;11.10;99.90
54192;DHT22;40101;53.002;6.488;2023-03-23T04:27:29;11.00;99.90
54192;DHT22;40101;53.002;6.488;2023-03-23T04:29:55;11.00;99.90
54192;DHT22;40101;53.002;6.488;2023-03-23T04:32:23;10.90;99.90
54192;DHT22;40101;53.002;6.488;2023-03-23T04:34:50;10.90;99.90
54192;DHT22;40101;53.002;6.488;2023-03-23T04:37:16;10.90;99.90
54192;DHT22;40101;53.002;6.488;2023-03-23T04:39:41;10.90;99.90
54192;DHT22;40101;53.002;6.488;2023-03-23T04:42:10;10.90;99.90
54192;DHT22;40101;53.002;6.488;2023-03-23T04:44:36;10.80;99.90
54192;DHT22;40101;53.002;6.488;2023-03-23T04:47:06;10.70;99.90
54192;DHT22;40101;53.002;6.488;2023-03-23T04:49:34;10.70;99.90
54192;DHT22;40101;53.002;6.488;2023-03-23T04:52:01;10.60;99.90
54192;DHT22;40101;53.002;6.488;2023-03-23T04:54:27;10.60;99.90
54192;DHT22;40101;53.002;6.488;2023-03-23T04:56:54;10.50;99.90
54192;DHT22;40101;53.002;6.488;2023-03-23T04:59:20;10.50;99.90
54192;DHT22;40101;53.002;6.488;2023-03-23T05:01:46;10.50;99.90
54192;DHT22;40101;53.002;6.488;2023-03-23T05:04:12;10.40;99.90
54192;DHT22;40101;53.002;6.488;2023-03-23T05:06:41;10.40;99.90
54192;DHT22;40101;53.002;6.488;2023-03-23T05:09:11;10.40;99.90
54192;DHT22;40101;53.002;6.488;2023-03-23T05:11:37;10.40;99.90
54192;DHT22;40101;53.002;6.488;2023-03-23T05:14:04;10.40;99.90
54192;DHT22;40101;53.002;6.488;2023-03-23T05:16:30;10.40;99.90
54192;DHT22;40101;53.002;6.488;2023-03-23T05:18:56;10.30;99.90
54192;DHT22;40101;53.002;6.488;2023-03-23T05:21:24;10.30;99.90
54192;DHT22;40101;53.002;6.488;2023-03-23T05:23:51;10.20;99.90
54192;DHT22;40101;53.002;6.488;2023-03-23T05:26:23;10.20;99.90
54192;DHT22;40101;53.002;6.488;2023-03-23T05:28:50;10.10;99.90
54192;DHT22;40101;53.002;6.488;2023-03-23T05:31:18;10.10;99.90
54192;DHT22;40101;53.002;6.488;2023-03-23T05:33:44;10.10;99.90
54192;DHT22;40101;53.002;6.488;2023-03-23T05:36:11;10.10;99.90
54192;DHT22;40101;53.002;6.488;2023-03-23T05:38:42;10.20;99.90
54192;DHT22;40101;53.002;6.488;2023-03-23T05:41:14;10.10;99.90
54192;DHT22;40101;53.002;6.488;2023-03-23T05:43:40;10.20;99.90
54192;DHT22;40101;53.002;6.488;2023-03-23T05:46:09;10.20;99.90
54192;DHT22;40101;53.002;6.488;2023-03-23T05:48:37;10.20;99.90
54192;DHT22;40101;53.002;6.488;2023-03-23T05:51:03;10.20;99.90
54192;DHT22;40101;53.002;6.488;2023-03-23T05:53:29;10.20;99.90
54192;DHT22;40101;53.002;6.488;2023-03-23T05:56:02;10.20;99.90
54192;DHT22;40101;53.002;6.488;2023-03-23T05:58:29;10.30;99.90
54192;DHT22;40101;53.002;6.488;2023-03-23T06:00:54;10.40;99.90
54192;DHT22;40101;53.002;6.488;2023-03-23T06:03:20;10.30;99.90
54192;DHT22;40101;53.002;6.488;2023-03-23T06:05:48;10.40;99.90
54192;DHT22;40101;53.002;6.488;2023-03-23T06:08:14;10.40;99.90
54192;DHT22;40101;53.002;6.488;2023-03-23T06:10:42;10.50;99.90
54192;DHT22;40101;53.002;6.488;2023-03-23T06:13:09;10.50;99.90
54192;DHT22;40101;53.002;6.488;2023-03-23T06:15:35;10.50;99.90
54192;DHT22;40101;53.002;6.488;2023-03-23T06:18:07;10.50;99.90
54192;DHT22;40101;53.002;6.488;2023-03-23T06:20:36;10.60;99.90
54192;DHT22;40101;53.002;6.488;2023-03-23T06:23:01;10.60;99.90
54192;DHT22;40101;53.002;6.488;2023-03-23T06:25:29;10.70;99.90
54192;DHT22;40101;53.002;6.488;2023-03-23T06:27:55;10.70;99.90
54192;DHT22;40101;53.002;6.488;2023-03-23T06:30:20;10.70;99.90
54192;DHT22;40101;53.002;6.488;2023-03-23T06:32:46;10.70;99.90
54192;DHT22;40101;53.002;6.488;2023-03-23T06:35:14;10.70;99.90
54192;DHT22;40101;53.002;6.488;2023-03-23T06:37:41;10.70;99.90
54192;DHT22;40101;53.002;6.488;2023-03-23T06:40:07;10.70;99.90
54192;DHT22;40101;53.002;6.488;2023-03-23T06:42:33;10.70;99.90
54192;DHT22;40101;53.002;6.488;2023-03-23T06:44:59;10.70;99.90
54192;DHT22;40101;53.002;6.488;2023-03-23T06:47:27;10.80;99.90
54192;DHT22;40101;53.002;6.488;2023-03-23T06:49:57;10.80;99.90
54192;DHT22;40101;53.002;6.488;2023-03-23T06:52:23;10.90;99.90
54192;DHT22;40101;53.002;6.488;2023-03-23T06:54:50;10.90;99.90
54192;DHT22;40101;53.002;6.488;2023-03-23T06:57:16;11.00;99.90
54192;DHT22;40101;53.002;6.488;2023-03-23T06:59:42;11.10;99.90
54192;DHT22;40101;53.002;6.488;2023-03-23T07:02:12;11.00;99.90
54192;DHT22;40101;53.002;6.488;2023-03-23T07:04:39;11.00;99.90
54192;DHT22;40101;53.002;6.488;2023-03-23T07:07:08;11.10;99.90
54192;DHT22;40101;53.002;6.488;2023-03-23T07:09:34;11.10;99.90
54192;DHT22;40101;53.002;6.488;2023-03-23T07:19:23;11.10;99.90
54192;DHT22;40101;53.002;6.488;2023-03-23T07:25:51;11.20;99.90
54192;DHT22;40101;53.002;6.488;2023-03-23T07:28:26;11.30;99.90
54192;DHT22;40101;53.002;6.488;2023-03-23T07:31:17;11.40;99.90
54192;DHT22;40101;53.002;6.488;2023-03-23T07:37:42;11.90;99.90
54192;DHT22;40101;53.002;6.488;2023-03-23T07:40:12;12.00;99.90
54192;DHT22;40101;53.002;6.488;2023-03-23T07:43:02;12.10;99.90
54192;DHT22;40101;53.002;6.488;2023-03-23T07:45:28;12.30;99.90
54192;DHT22;40101;53.002;6.488;2023-03-23T07:47:54;12.30;99.90
54192;DHT22;40101;53.002;6.488;2023-03-23T07:50:23;12.30;99.90
54192;DHT22;40101;53.002;6.488;2023-03-23T07:53:13;12.20;99.90
54192;DHT22;40101;53.002;6.488;2023-03-23T07:55:41;12.20;99.90
54192;DHT22;40101;53.002;6.488;2023-03-23T07:58:07;12.30;99.90
54192;DHT22;40101;53.002;6.488;2023-03-23T08:00:34;12.30;99.90
54192;DHT22;40101;53.002;6.488;2023-03-23T08:03:00;12.30;99.90
54192;DHT22;40101;53.002;6.488;2023-03-23T08:05:39;12.30;99.90
54192;DHT22;40101;53.002;6.488;2023-03-23T08:08:08;12.30;99.90
54192;DHT22;40101;53.002;6.488;2023-03-23T08:10:35;12.20;99.90
54192;DHT22;40101;53.002;6.488;2023-03-23T08:13:01;12.10;99.90
54192;DHT22;40101;53.002;6.488;2023-03-23T08:15:28;12.10;99.90
54192;DHT22;40101;53.002;6.488;2023-03-23T08:17:58;12.10;99.90
54192;DHT22;40101;53.002;6.488;2023-03-23T08:20:24;12.10;99.90
54192;DHT22;40101;53.002;6.488;2023-03-23T08:22:55;12.10;99.90
54192;DHT22;40101;53.002;6.488;2023-03-23T08:25:23;12.20;99.90
54192;DHT22;40101;53.002;6.488;2023-03-23T08:27:50;12.20;99.90
54192;DHT22;40101;53.002;6.488;2023-03-23T08:30:18;12.30;99.90
54192;DHT22;40101;53.002;6.488;2023-03-23T08:32:45;12.30;99.90
54192;DHT22;40101;53.002;6.488;2023-03-23T08:35:11;12.20;99.90
54192;DHT22;40101;53.002;6.488;2023-03-23T08:37:38;12.30;99.90
54192;DHT22;40101;53.002;6.488;2023-03-23T08:40:05;12.30;99.90
54192;DHT22;40101;53.002;6.488;2023-03-23T08:42:40;12.30;99.90
54192;DHT22;40101;53.002;6.488;2023-03-23T08:45:08;12.40;99.90
54192;DHT22;40101;53.002;6.488;2023-03-23T08:47:35;12.40;99.90
54192;DHT22;40101;53.002;6.488;2023-03-23T08:50:03;12.80;99.90
54192;DHT22;40101;53.002;6.488;2023-03-23T08:52:29;13.60;99.90
54192;DHT22;40101;53.002;6.488;2023-03-23T08:54:55;14.40;99.90
54192;DHT22;40101;53.002;6.488;2023-03-23T08:57:23;14.60;99.90
54192;DHT22;40101;53.002;6.488;2023-03-23T08:59:49;15.00;99.90
54192;DHT22;40101;53.002;6.488;2023-03-23T09:02:15;15.00;99.90
54192;DHT22;40101;53.002;6.488;2023-03-23T09:04:42;14.80;99.90
54192;DHT22;40101;53.002;6.488;2023-03-23T09:07:16;14.90;99.90
54192;DHT22;40101;53.002;6.488;2023-03-23T09:09:44;15.30;99.90
54192;DHT22;40101;53.002;6.488;2023-03-23T09:12:13;15.20;99.90
54192;DHT22;40101;53.002;6.488;2023-03-23T09:14:39;15.40;99.90
54192;DHT22;40101;53.002;6.488;2023-03-23T09:17:05;15.40;99.90
54192;DHT22;40101;53.002;6.488;2023-03-23T09:19:33;15.00;99.90
54192;DHT22;40101;53.002;6.488;2023-03-23T09:22:00;14.70;99.90
54192;DHT22;40101;53.002;6.488;2023-03-23T09:24:26;14.50;99.90
54192;DHT22;40101;53.002;6.488;2023-03-23T09:26:52;14.60;99.90
54192;DHT22;40101;53.002;6.488;2023-03-23T09:29:18;14.80;99.90
54192;DHT22;40101;53.002;6.488;2023-03-23T09:31:44;15.30;99.90
54192;DHT22;40101;53.002;6.488;2023-03-23T09:34:13;15.40;99.90
54192;DHT22;40101;53.002;6.488;2023-03-23T09:36:41;15.20;99.90
54192;DHT22;40101;53.002;6.488;2023-03-23T09:39:07;15.10;99.90
54192;DHT22;40101;53.002;6.488;2023-03-23T09:42:07;15.20;99.90
54192;DHT22;40101;53.002;6.488;2023-03-23T09:52:43;17.60;99.90
54192;DHT22;40101;53.002;6.488;2023-03-23T09:55:15;17.60;99.90
54192;DHT22;40101;53.002;6.488;2023-03-23T10:00:53;17.60;99.90
54192;DHT22;40101;53.002;6.488;2023-03-23T10:03:32;17.60;99.90
54192;DHT22;40101;53.002;6.488;2023-03-23T10:05:59;18.10;99.90
54192;DHT22;40101;53.002;6.488;2023-03-23T10:08:27;18.50;99.90
54192;DHT22;40101;53.002;6.488;2023-03-23T10:11:16;19.10;99.90
54192;DHT22;40101;53.002;6.488;2023-03-23T10:14:13;19.60;99.90
54192;DHT22;40101;53.002;6.488;2023-03-23T10:17:04;19.90;99.90
54192;DHT22;40101;53.002;6.488;2023-03-23T10:22:10;19.60;99.90
54192;DHT22;40101;53.002;6.488;2023-03-23T10:24:50;19.40;99.90
54192;DHT22;40101;53.002;6.488;2023-03-23T10:30:11;19.10;99.90
54192;DHT22;40101;53.002;6.488;2023-03-23T10:38:55;18.30;99.90
54192;DHT22;40101;53.002;6.488;2023-03-23T10:41:22;18.40;99.90
54192;DHT22;40101;53.002;6.488;2023-03-23T10:43:48;17.90;99.90
54192;DHT22;40101;53.002;6.488;2023-03-23T10:49:28;16.90;99.90
54192;DHT22;40101;53.002;6.488;2023-03-23T10:54:51;15.70;99.90
54192;DHT22;40101;53.002;6.488;2023-03-23T10:57:27;15.30;99.90
54192;DHT22;40101;53.002;6.488;2023-03-23T11:00:07;15.00;99.90
54192;DHT22;40101;53.002;6.488;2023-03-23T11:02:46;14.90;99.90
54192;DHT22;40101;53.002;6.488;2023-03-23T11:05:19;15.10;99.90
54192;DHT22;40101;53.002;6.488;2023-03-23T11:07:56;15.20;99.90
54192;DHT22;40101;53.002;6.488;2023-03-23T11:10:24;15.40;99.90
54192;DHT22;40101;53.002;6.488;2023-03-23T11:12:51;15.50;99.90
54192;DHT22;40101;53.002;6.488;2023-03-23T11:17:59;15.70;99.90
54192;DHT22;40101;53.002;6.488;2023-03-23T11:20:38;15.70;99.90
54192;DHT22;40101;53.002;6.488;2023-03-23T11:23:21;15.70;99.90
54192;DHT22;40101;53.002;6.488;2023-03-23T11:28:44;15.40;99.90
54192;DHT22;40101;53.002;6.488;2023-03-23T16:20:48;14.20;99.90
54192;DHT22;40101;53.002;6.488;2023-03-23T16:23:14;14.20;99.90
54192;DHT22;40101;53.002;6.488;2023-03-23T16:25:40;14.10;99.90
54192;DHT22;40101;53.002;6.488;2023-03-23T16:28:10;14.10;99.90
54192;DHT22;40101;53.002;6.488;2023-03-23T16:30:36;14.10;99.90
54192;DHT22;40101;53.002;6.488;2023-03-23T16:33:10;14.10;99.90
54192;DHT22;40101;53.002;6.488;2023-03-23T16:35:39;14.10;99.90
54192;DHT22;40101;53.002;6.488;2023-03-23T16:38:05;14.00;99.90
54192;DHT22;40101;53.002;6.488;2023-03-23T16:54:13;13.60;99.90
54192;DHT22;40101;53.002;6.488;2023-03-23T16:56:39;13.60;99.90
54192;DHT22;40101;53.002;6.488;2023-03-23T16:59:05;13.50;99.90
54192;DHT22;40101;53.002;6.488;2023-03-23T17:01:31;13.50;99.90
54192;DHT22;40101;53.002;6.488;2023-03-23T17:03:57;13.40;99.90
54192;DHT22;40101;53.002;6.488;2023-03-23T17:06:28;13.30;99.90
54192;DHT22;40101;53.002;6.488;2023-03-23T17:08:57;13.20;99.90
54192;DHT22;40101;53.002;6.488;2023-03-23T17:11:23;13.20;99.90
54192;DHT22;40101;53.002;6.488;2023-03-23T17:13:49;13.20;99.90
54192;DHT22;40101;53.002;6.488;2023-03-23T17:16:15;13.20;99.90
54192;DHT22;40101;53.002;6.488;2023-03-23T17:18:41;13.20;99.90
54192;DHT22;40101;53.002;6.488;2023-03-23T17:21:06;13.10;99.90
54192;DHT22;40101;53.002;6.488;2023-03-23T17:23:33;13.10;99.90
54192;DHT22;40101;53.002;6.488;2023-03-23T17:25:59;13.10;99.90
54192;DHT22;40101;53.002;6.488;2023-03-23T17:28:25;13.00;99.90
54192;DHT22;40101;53.002;6.488;2023-03-23T17:30:51;13.00;99.90
54192;DHT22;40101;53.002;6.488;2023-03-23T17:33:17;12.90;99.90
54192;DHT22;40101;53.002;6.488;2023-03-23T17:35:47;12.80;99.90
54192;DHT22;40101;53.002;6.488;2023-03-23T17:38:16;12.80;99.90
54192;DHT22;40101;53.002;6.488;2023-03-23T17:40:42;12.70;99.90
54192;DHT22;40101;53.002;6.488;2023-03-23T17:43:11;12.70;99.90
54192;DHT22;40101;53.002;6.488;2023-03-23T17:45:37;12.60;99.90
54192;DHT22;40101;53.002;6.488;2023-03-23T17:48:03;12.60;99.90
54192;DHT22;40101;53.002;6.488;2023-03-23T17:50:33;12.60;99.90
54192;DHT22;40101;53.002;6.488;2023-03-23T17:52:59;12.50;99.90
54192;DHT22;40101;53.002;6.488;2023-03-23T17:55:26;12.50;99.90
54192;DHT22;40101;53.002;6.488;2023-03-23T17:57:52;12.50;99.90
54192;DHT22;40101;53.002;6.488;2023-03-23T18:00:18;12.50;99.90
54192;DHT22;40101;53.002;6.488;2023-03-23T18:02:44;12.50;99.90
54192;DHT22;40101;53.002;6.488;2023-03-23T18:05:10;12.50;99.90
54192;DHT22;40101;53.002;6.488;2023-03-23T18:07:36;12.50;99.90
54192;DHT22;40101;53.002;6.488;2023-03-23T18:10:03;12.50;99.90
54192;DHT22;40101;53.002;6.488;2023-03-23T18:12:30;12.50;99.90
54192;DHT22;40101;53.002;6.488;2023-03-23T18:14:56;12.50;99.90
54192;DHT22;40101;53.002;6.488;2023-03-23T18:17:23;12.50;99.90
54192;DHT22;40101;53.002;6.488;2023-03-23T18:19:48;12.40;99.90
54192;DHT22;40101;53.002;6.488;2023-03-23T18:22:14;12.40;99.90
54192;DHT22;40101;53.002;6.488;2023-03-23T18:24:43;12.40;99.90
54192;DHT22;40101;53.002;6.488;2023-03-23T18:27:09;12.40;99.90
54192;DHT22;40101;53.002;6.488;2023-03-23T18:29:35;12.40;99.90
54192;DHT22;40101;53.002;6.488;2023-03-23T18:32:01;12.40;99.90
54192;DHT22;40101;53.002;6.488;2023-03-23T18:34:30;12.40;99.90
54192;DHT22;40101;53.002;6.488;2023-03-23T18:36:56;12.30;99.90
54192;DHT22;40101;53.002;6.488;2023-03-23T18:39:22;12.30;99.90
54192;DHT22;40101;53.002;6.488;2023-03-23T18:41:48;12.30;99.90
54192;DHT22;40101;53.002;6.488;2023-03-23T18:44:15;12.30;99.90
54192;DHT22;40101;53.002;6.488;2023-03-23T18:46:44;12.30;99.90
54192;DHT22;40101;53.002;6.488;2023-03-23T18:49:18;12.20;99.90
54192;DHT22;40101;53.002;6.488;2023-03-23T18:51:44;12.20;99.90
54192;DHT22;40101;53.002;6.488;2023-03-23T18:54:13;12.20;99.90
54192;DHT22;40101;53.002;6.488;2023-03-23T18:56:42;12.20;99.90
54192;DHT22;40101;53.002;6.488;2023-03-23T18:59:13;12.20;99.90
54192;DHT22;40101;53.002;6.488;2023-03-23T19:02:08;12.20;99.90
54192;DHT22;40101;53.002;6.488;2023-03-23T19:04:37;12.20;99.90
54192;DHT22;40101;53.002;6.488;2023-03-23T19:07:07;12.20;99.90
54192;DHT22;40101;53.002;6.488;2023-03-23T19:09:44;12.20;99.90
54192;DHT22;40101;53.002;6.488;2023-03-23T19:12:12;12.20;99.90
54192;DHT22;40101;53.002;6.488;2023-03-23T19:14:39;12.30;99.90
54192;DHT22;40101;53.002;6.488;2023-03-23T19:17:06;12.30;99.90
54192;DHT22;40101;53.002;6.488;2023-03-23T19:23:30;12.30;99.90
54192;DHT22;40101;53.002;6.488;2023-03-23T19:29:34;12.20;99.90
54192;DHT22;40101;53.002;6.488;2023-03-23T19:32:00;12.20;99.90
54192;DHT22;40101;53.002;6.488;2023-03-23T19:34:27;12.10;99.90
54192;DHT22;40101;53.002;6.488;2023-03-23T19:36:59;12.10;99.90
54192;DHT22;40101;53.002;6.488;2023-03-23T19:39:25;12.10;99.90
54192;DHT22;40101;53.002;6.488;2023-03-23T19:41:51;12.00;99.90
54192;DHT22;40101;53.002;6.488;2023-03-23T19:44:18;12.00;99.90
54192;DHT22;40101;53.002;6.488;2023-03-23T19:46:44;12.00;99.90
54192;DHT22;40101;53.002;6.488;2023-03-23T19:49:10;12.00;99.90
54192;DHT22;40101;53.002;6.488;2023-03-23T19:51:36;11.90;99.90
54192;DHT22;40101;53.002;6.488;2023-03-23T19:54:01;11.90;99.90
54192;DHT22;40101;53.002;6.488;2023-03-23T19:56:27;11.80;99.90
54192;DHT22;40101;53.002;6.488;2023-03-23T19:58:54;11.80;99.90
54192;DHT22;40101;53.002;6.488;2023-03-23T20:01:20;11.80;99.90
54192;DHT22;40101;53.002;6.488;2023-03-23T20:03:46;11.80;99.90
54192;DHT22;40101;53.002;6.488;2023-03-23T20:06:14;11.80;99.90
54192;DHT22;40101;53.002;6.488;2023-03-23T20:08:44;11.80;99.90
54192;DHT22;40101;53.002;6.488;2023-03-23T20:11:13;11.80;99.90
54192;DHT22;40101;53.002;6.488;2023-03-23T20:13:42;11.80;99.90
54192;DHT22;40101;53.002;6.488;2023-03-23T20:16:08;11.80;99.90
54192;DHT22;40101;53.002;6.488;2023-03-23T20:18:45;11.90;99.90
54192;DHT22;40101;53.002;6.488;2023-03-23T20:21:17;11.90;99.90
54192;DHT22;40101;53.002;6.488;2023-03-23T20:23:57;11.80;99.90
54192;DHT22;40101;53.002;6.488;2023-03-23T20:26:26;11.80;99.90
54192;DHT22;40101;53.002;6.488;2023-03-23T20:29:12;11.80;99.90
54192;DHT22;40101;53.002;6.488;2023-03-23T20:31:39;11.80;99.90
54192;DHT22;40101;53.002;6.488;2023-03-23T20:34:12;11.80;99.90
54192;DHT22;40101;53.002;6.488;2023-03-23T20:36:43;11.80;99.90
54192;DHT22;40101;53.002;6.488;2023-03-23T20:39:17;11.70;99.90
54192;DHT22;40101;53.002;6.488;2023-03-23T20:41:49;11.70;99.90
54192;DHT22;40101;53.002;6.488;2023-03-23T20:47:22;11.70;99.90
54192;DHT22;40101;53.002;6.488;2023-03-23T20:50:04;11.70;99.90
54192;DHT22;40101;53.002;6.488;2023-03-23T20:59:03;11.60;99.90
54192;DHT22;40101;53.002;6.488;2023-03-23T21:01:30;11.60;99.90
54192;DHT22;40101;53.002;6.488;2023-03-23T21:03:57;11.60;99.90
54192;DHT22;40101;53.002;6.488;2023-03-23T21:06:27;11.60;99.90
54192;DHT22;40101;53.002;6.488;2023-03-23T21:09:01;11.60;99.90
54192;DHT22;40101;53.002;6.488;2023-03-23T21:11:33;11.60;99.90
54192;DHT22;40101;53.002;6.488;2023-03-23T21:14:00;11.50;99.90
54192;DHT22;40101;53.002;6.488;2023-03-23T21:16:26;11.60;99.90
54192;DHT22;40101;53.002;6.488;2023-03-23T21:18:53;11.50;99.90
54192;DHT22;40101;53.002;6.488;2023-03-23T21:21:19;11.50;99.90
54192;DHT22;40101;53.002;6.488;2023-03-23T21:23:45;11.50;99.90
54192;DHT22;40101;53.002;6.488;2023-03-23T21:26:14;11.50;99.90
54192;DHT22;40101;53.002;6.488;2023-03-23T21:28:44;11.50;99.90
54192;DHT22;40101;53.002;6.488;2023-03-23T21:31:10;11.50;99.90
54192;DHT22;40101;53.002;6.488;2023-03-23T21:33:35;11.50;99.90
54192;DHT22;40101;53.002;6.488;2023-03-23T21:36:01;11.50;99.90
54192;DHT22;40101;53.002;6.488;2023-03-23T21:38:27;11.50;99.90
54192;DHT22;40101;53.002;6.488;2023-03-23T21:40:54;11.50;99.90
54192;DHT22;40101;53.002;6.488;2023-03-23T21:43:21;11.50;99.90
54192;DHT22;40101;53.002;6.488;2023-03-23T21:45:53;11.50;99.90
54192;DHT22;40101;53.002;6.488;2023-03-23T21:48:25;11.50;99.90
54192;DHT22;40101;53.002;6.488;2023-03-23T21:50:52;11.50;99.90
54192;DHT22;40101;53.002;6.488;2023-03-23T21:53:18;11.50;99.90
54192;DHT22;40101;53.002;6.488;2023-03-23T21:55:46;11.50;99.90
54192;DHT22;40101;53.002;6.488;2023-03-23T21:58:16;11.40;99.90
54192;DHT22;40101;53.002;6.488;2023-03-23T22:00:44;11.50;99.90
54192;DHT22;40101;53.002;6.488;2023-03-23T22:03:12;11.50;99.90
54192;DHT22;40101;53.002;6.488;2023-03-23T22:05:41;11.50;99.90